Highlands Peak, California Weather observations

Data are for observation ending at time listed.
 Day   Time    Ave.   Ave.  Ave.  Vector   Max.   Stn.    Total    Solar   Ave.  
  of    of     Air    Rel.  Wind   Wind    Wind   Baro.  Precip.   Rad.    Soil  
Year   Day     Temp.  Hum.  Speed  Dir.    Gust   Pres.                    Temp. 
2015   (PST)    F      %     mph   deg.    mph     mb.     in.     W/m2     F   
------------------------------------------------------------------------------
 116   21:50   60.7    38    2.9   166     12.6   931.2    0.00       0    66.4
 116   22:00   60.7    38    4.1   168      8.0   931.2    0.00       0    66.2
 116   22:10   59.0    42    5.2   198      8.6   931.3    0.00       0    66.0
 116   22:20   57.9    44    6.6   204      8.6   931.3    0.00       0    65.8
 116   22:30   57.5    44    5.5   187      8.3   931.3    0.00       0    65.7
 116   22:40   58.5    42    3.2   204      7.1   931.3    0.00       0    65.5
 116   22:50  99999.0   99999  99999.0   99999    99999.0   99999.0   99999.00   99999    99999.0
 116   23:00  99999.0   99999  99999.0   99999    99999.0   99999.0   99999.00   99999    99999.0
 116   23:10  99999.0   99999  99999.0   99999    99999.0   99999.0   99999.00   99999    99999.0
 116   23:20  99999.0   99999  99999.0   99999    99999.0   99999.0   99999.00   99999    99999.0
 116   23:30  99999.0   99999  99999.0   99999    99999.0   99999.0   99999.00   99999    99999.0
 116   23:40  99999.0   99999  99999.0   99999    99999.0   99999.0   99999.00   99999    99999.0
 116   23:50   59.4    41    3.0   239      5.7   930.9    0.00       0    64.3
 117    0:00   59.6    40    3.6   288      7.2   930.8    0.00       0    64.1
 117    0:10   58.9    42    5.1   282      7.2   930.7    0.00       0    64.0
 117    0:20   59.5    40    4.6   272      7.5   930.7    0.00       0    63.8
 117    0:30   59.4    41    4.1   277      7.6   930.7    0.00       0    63.6
 117    0:40  99999.0   99999  99999.0   99999    99999.0   99999.0   99999.00   99999    99999.0
 117    0:50   59.1    41    3.5   260      7.6   930.5    0.00       0    63.3
 117    1:00   59.1    41    3.3   226      6.4   930.4    0.00       0    63.2
 117    1:10   59.1    41    3.3   233      5.0   930.3    0.00       0    63.1
 117    1:20   59.5    40    4.5   244      6.4   930.2    0.00       0    62.9
 117    1:30   59.1    41    4.2   203      5.7   930.1    0.00       0    62.8
 117    1:40   58.8    42    4.3   201      5.8   930.1    0.00       0    62.7
 117    1:50   59.2    41    4.2   211      6.1   930.0    0.00       0    62.6
 117    2:00   59.8    40    3.3   190      5.9   930.0    0.00       0    62.4
 117    2:10   60.1    39    2.8   262      7.1   929.9    0.00       0    62.3
 117    2:20   59.8    40    2.3   192      4.2   929.9    0.00       0    62.2
 117    2:30   60.7    38    2.6   231      4.8   929.9    0.00       0    62.1
 117    2:40   60.0    39    4.9   179      6.4   929.9    0.00       0    62.0
 117    2:50   59.6    40    3.9   187      5.6   929.9    0.00       0    61.8
 117    3:00   60.3    38    2.6   206      4.5   929.9    0.00       0    61.7
 117    3:10   60.7    38    2.9   225      5.3   929.9    0.00       0    61.6
 117    3:20   60.0    39    3.8   220      6.4   929.9    0.00       0    61.5
 117    3:30   59.8    40    4.7   226      6.6   929.9    0.00       0    61.3
 117    3:40   59.7    40    4.9   208      6.9   929.9    0.00       0    61.2
 117    3:50   58.7    42    5.3   200      7.3   929.9    0.00       0    61.1
 117    4:00   58.4    42    5.6   187      7.5   929.8    0.00       0    61.1
 117    4:10   58.7    42    5.5   191      7.1   929.8    0.00       0    61.0
 117    4:20   58.7    42    5.2   179      6.9   929.8    0.00       0    60.9
 117    4:30   59.3    40    4.4   199      7.7   929.8    0.00       0    60.8
 117    4:40   60.1    39    3.6   225      6.4   929.9    0.00       0    60.7
 117    4:50   60.0    39    3.3   202      6.8   929.9    0.00       0    60.6
 117    5:00   59.9    40    3.6   191      6.3   929.9    0.00       0    60.5
 117    5:10   60.0    39    3.5   198      5.4   929.9    0.00       1    60.4
 117    5:20   60.3    39    3.3   223      5.8   929.9    0.00       3    60.3
 117    5:30   61.0    38    5.1   249      9.4   929.8    0.00       7    60.1
 117    5:40   61.1    38    2.1   213      4.6   929.9    0.00      12    60.1
 117    5:50   61.3    38    2.5   250      5.0   930.0    0.00      16    60.1
 117    6:00   61.6    37    1.8   246      5.6   930.1    0.00      19    60.0
 117    6:10   61.3    38    2.2   321      4.6   930.2    0.00      23    59.9
 117    6:20   62.2    36    0.7   272      3.3   930.3    0.00     156    59.8
 117    6:30   63.4    34    1.4   304      3.6   930.4    0.00     221    59.6
 117    6:40   63.2    36    3.0   312      5.6   930.4    0.00     262    59.6
 117    6:50   63.9    35    2.6   329      4.3   930.5    0.00     295    59.5
 117    7:00   64.5    34    1.4   348      3.5   930.5    0.00     343    59.5
 117    7:10   66.1    35    1.4   106      2.6   930.5    0.00     384    59.5
 117    7:20   65.9    35    0.6   216      2.0   930.5    0.00     424    59.4
 117    7:30   64.8    36    2.1   214      3.4   930.7    0.00     463    59.3
 117    7:40   64.8    37    1.4   212      3.1   930.7    0.00     501    59.3
 117    7:50   65.4    38    1.9   207      4.0   930.7    0.00     540    59.4
 117    8:00   65.4    38    1.4   236      4.5   930.7    0.00     578    59.4
 117    8:10   64.6    38    2.3   260      3.2   930.8    0.00     613    59.5
 117    8:20   64.5    38    1.7   259      3.1   930.8    0.00     647    59.6
 117    8:30   64.7    40    1.7   270      4.5   930.8    0.00     681    59.7
 117    8:40   65.4    40    1.8   266      3.8   930.8    0.00     716    59.9
 117    8:50   66.1    40    2.4   250      4.9   930.8    0.00     750    60.0
 117    9:00   65.9    39    2.6   266      4.5   930.9    0.00     785    60.3
 117    9:10   66.0    40    2.6   248      4.8   930.8    0.00     816    60.5
 117    9:20   66.7    39    1.2   250      3.3   930.8    0.00     846    60.8
 117    9:30   66.8    41    3.4   271      5.3   930.8    0.00     868    61.1
 117    9:40   66.6    42    3.7   257      5.9   930.8    0.00     889    61.4
 117    9:50   66.7    40    3.7   242      6.9   930.9    0.00     912    61.7
 117   10:00   68.0    35    3.6   227      6.5   930.9    0.00     933    62.0
 117   10:10   67.9    36    4.1   252      7.8   930.9    0.00     950    62.4
 117   10:20   68.0    38    4.2   262      7.0   930.9    0.00     967    62.7
 117   10:30   67.8    39    4.9   262      9.3   930.9    0.00     982    63.0
 117   10:40   67.2    39    6.1   266      9.3   931.0    0.00     995    63.4
 117   10:50   67.2    37    6.2   258     10.4   931.0    0.00    1006    63.7
 117   11:00   67.2    37    4.7   269      8.1   931.0    0.00    1016    64.0
 117   11:10   66.5    38    5.3   268      9.8   930.9    0.00    1024    64.4
 117   11:20   66.9    40    5.0   264      9.6   930.9    0.00    1031    64.7
 117   11:30   67.0    40    5.1   265     10.6   930.8    0.00    1034    65.0
 117   11:40   67.0    41    4.5   268      7.2   930.8    0.00    1036    65.3
 117   11:50   67.3    40    4.6   264      6.9   930.7    0.00    1037    65.7
 117   12:00   67.2    43    4.8   274      7.2   930.7    0.00    1036    65.9
 117   12:10   67.0    43    5.1   274      7.9   930.6    0.00    1035    66.2
 117   12:20   66.9    42    5.0   275      7.6   930.5    0.00    1033    66.6
 117   12:30   66.9    41    5.3   270      8.6   930.5    0.00    1029    66.9
 117   12:40   67.2    39    5.6   265      8.7   930.5    0.00    1022    67.2
 117   12:50   67.8    38    4.1   252      8.8   930.5    0.00    1013    67.6
 117   13:00   68.2    38    6.5   271     11.5   930.4    0.00    1004    67.9
 117   13:10   68.3    36    4.5   282      8.1   930.4    0.00     990    68.2
 117   13:20   68.7    36    4.1   271      8.0   930.3    0.00     981    68.6
 117   13:30   68.8    35    4.4   274      9.6   930.3    0.00     966    69.0
 117   13:40   68.8    36    5.8   277     10.2   930.2    0.00     950    69.4
 117   13:50   68.2    36    5.5   272     10.6   930.2    0.00     916    69.9
 117   14:00   68.5    35    5.4   276      8.6   930.1    0.00     901    70.3
 117   14:10   68.8    35    3.3   275      7.2   930.1    0.00     892    70.6
 117   14:20   69.7    36    5.7   283      8.9   930.0    0.00     870    71.0
 117   14:30   68.9    36    5.6   274      9.2   930.0    0.00     847    71.4
 117   14:40   69.3    36    5.6   275      8.7   929.9    0.00     821    71.8
 117   14:50   68.5    35    5.2   271      9.3   929.9    0.00     793    72.2
 117   15:00   68.1    35    3.3   258      6.4   929.9    0.00     765    72.6
 117   15:10   68.9    34    4.1   261      6.6   929.7    0.00     740    72.9
 117   15:20   68.5    35    3.9   265      7.6   929.5    0.00     711    73.3
 117   15:30   69.0    36    4.5   266      7.7   929.4    0.00     680    73.6
 117   15:40   69.1    36    4.7   276      8.1   929.4    0.00     648    73.8
 117   15:50   69.9    35    4.6   253      7.5   929.4    0.00     614    74.0
 117   16:00   69.1    34    4.8   269      9.0   929.4    0.00     580    74.3
 117   16:10   68.2    35    4.8   274      8.7   929.4    0.00     543    74.4
 117   16:20   68.6    35    4.6   279      8.1   929.4    0.00     494    74.4
 117   16:30   68.1    34    2.9   271      6.3   929.3    0.00     465    74.6
 117   16:40   68.6    33    3.5   280      6.1   929.3    0.00     435    74.7
 117   16:50   67.8    34    4.1   270      6.8   929.3    0.00     397    74.9
 117   17:00   68.2    34    3.2   285      6.3   929.3    0.00     360    74.9
 117   17:10   67.7    35    4.7   282      8.0   929.3    0.00     322    75.0
 117   17:20   67.0    35    4.7   284      7.8   929.3    0.00     284    75.0
 117   17:30   66.5    35    3.8   286      5.7   929.3    0.00     247    75.1
 117   17:40   66.8    35    3.1   281      5.4   929.3    0.00     211    75.0
 117   17:50   67.5    35    1.6   307      3.5   929.3    0.00     176    75.0
 117   18:00   67.9    36    1.0   306      2.7   929.3    0.00     143    75.0
 117   18:10   68.6    34    0.3    62      1.4   929.3    0.00     113    75.0
 117   18:20   68.1    36    1.1   309      2.6   929.3    0.00      86    74.9
 117   18:30   67.0    39    2.8   332      4.2   929.3    0.00      60    74.9
 117   18:40   66.1    38    2.2   312      3.7   929.3    0.00      36    74.8
 117   18:50   64.8    39    2.3   263      3.4   929.4    0.00      16    74.7
 117   19:00   63.9    40    0.7   234      1.5   929.4    0.00       5    74.6
 117   19:10   63.6    40    1.3   129      3.4   929.4    0.00       1    74.4
 117   19:20   62.7    43    4.8   152      6.2   929.6    0.00       0    74.2
 117   19:30   62.0    44    6.0   137      6.9   929.6    0.00       0    73.8
 117   19:40   63.5    40    2.6   138      5.3   929.7    0.00       0    73.5
 117   19:50   64.6    39    1.0   180      2.4   929.8    0.00       0    73.5
 117   20:00   64.5    38    0.6   106      2.2   929.9    0.00       0    73.4
 117   20:10   65.3    38    1.6    46      2.3   929.9    0.00       0    73.2
 117   20:20   65.1    41    3.7   336      5.0   930.0    0.00       0    73.0
 117   20:30   64.5    41    1.6   349      4.3   930.1    0.00       0    72.9
 117   20:40   65.3    40    3.0   298      5.1   930.2    0.00       0    72.7
 117   20:50   64.0    43    4.1   323      6.6   930.3    0.00       0    72.5
 117   21:00   63.6    44    4.1   332      5.6   930.4    0.00       0    72.3
 117   21:10   63.1    44    3.0   331      4.6   930.4    0.00       0    72.1
 117   21:20   63.6    44    3.2    59      5.3   930.4    0.00       0    71.9
 117   21:30   64.2    42    6.9    83      8.9   930.3    0.00       0    71.6
 117   21:40   65.5    39    6.7    85      8.5   930.4    0.00       0    71.3

Return to Highlands Peak graphs page.


Western Regional Climate Center,wrcc@dri.edu